Time;durP1;ratioP1;P1;durP2;ratioP2;P2;SDS_P1;SDS_P2;PMS_P1;PMS_P2;Temp;Humidity;BMP_temperature;BMP_pressure;BME280_temperature;BME280_humidity;BME280_pressure;Samples;Min_cycle;Max_cycle;Signal;HPM_P1;HPM_P2
2022/11/13 00:01:21;;;;;;;21.33;11.07;;;10.20;99.90;;;;;;5025682;28;20029;-72
2022/11/13 00:03:47;;;;;;;15.85;10.57;;;10.20;99.90;;;;;;5024650;28;20087;-71
2022/11/13 00:06:14;;;;;;;23.92;11.73;;;10.10;99.90;;;;;;5028533;28;20104;-71
2022/11/13 00:08:41;;;;;;;18.55;10.27;;;10.10;99.90;;;;;;5028792;28;20040;-71
2022/11/13 00:11:17;;;;;;;19.35;10.60;;;10.10;99.90;;;;;;5025736;28;20120;-71
2022/11/13 00:13:43;;;;;;;16.17;10.25;;;10.10;99.90;;;;;;5025144;28;20030;-71
2022/11/13 00:16:18;;;;;;;17.90;10.32;;;10.10;99.90;;;;;;5025747;28;20176;-71
2022/11/13 00:18:44;;;;;;;15.73;9.73;;;10.10;99.90;;;;;;5024912;28;20095;-72
2022/11/13 00:21:27;;;;;;;14.68;10.00;;;10.00;99.90;;;;;;5040506;28;20069;-71
2022/11/13 00:23:54;;;;;;;15.70;9.80;;;10.00;99.90;;;;;;5026017;28;20030;-71
2022/11/13 00:26:24;;;;;;;19.05;10.63;;;10.00;99.90;;;;;;5026584;28;20026;-71
2022/11/13 00:28:59;;;;;;;16.48;9.95;;;10.00;99.90;;;;;;5023991;28;20025;-71
2022/11/13 00:31:26;;;;;;;16.58;10.10;;;10.00;99.90;;;;;;5023651;28;20087;-72
2022/11/13 00:33:52;;;;;;;20.30;11.43;;;9.90;99.90;;;;;;5026027;28;20036;-71
2022/11/13 00:36:26;;;;;;;18.15;10.60;;;9.90;99.90;;;;;;5025660;28;20033;-72
2022/11/13 00:38:54;;;;;;;19.20;11.13;;;9.90;99.90;;;;;;5028093;28;20045;-71
2022/11/13 00:41:23;;;;;;;21.33;11.88;;;9.80;99.90;;;;;;5027109;28;20080;-72
2022/11/13 00:43:48;;;;;;;21.52;11.88;;;9.80;99.90;;;;;;5027165;28;20022;-71
2022/11/13 00:46:14;;;;;;;19.10;12.15;;;9.80;99.90;;;;;;5030568;28;20076;-72
2022/11/13 00:48:40;;;;;;;17.73;11.70;;;9.80;99.90;;;;;;5031574;28;20059;-71
2022/11/13 00:51:06;;;;;;;21.40;11.52;;;9.80;99.90;;;;;;5029466;28;20032;-71
2022/11/13 00:53:32;;;;;;;21.27;11.82;;;9.70;99.90;;;;;;5029872;28;20026;-70
2022/11/13 00:55:59;;;;;;;20.58;12.02;;;9.70;99.90;;;;;;5030615;28;20060;-71
2022/11/13 00:58:25;;;;;;;21.15;11.25;;;9.70;99.90;;;;;;5029677;28;20108;-72
2022/11/13 01:00:51;;;;;;;19.27;11.35;;;9.70;99.90;;;;;;5027516;28;20139;-71
2022/11/13 01:03:17;;;;;;;19.20;11.38;;;9.70;99.90;;;;;;5030509;28;20441;-72
2022/11/13 01:05:44;;;;;;;19.05;11.40;;;9.70;99.90;;;;;;5030474;28;20022;-72
2022/11/13 01:08:11;;;;;;;19.23;11.15;;;9.60;99.90;;;;;;5030744;28;20143;-72
2022/11/13 01:10:47;;;;;;;17.65;10.45;;;9.60;99.90;;;;;;5030070;28;20029;-72
2022/11/13 01:13:12;;;;;;;21.17;10.45;;;9.60;99.90;;;;;;5028933;28;20116;-71
2022/11/13 01:15:40;;;;;;;17.75;10.57;;;9.50;99.90;;;;;;5030463;28;20136;-70
2022/11/13 01:18:09;;;;;;;18.67;11.02;;;9.40;99.90;;;;;;5029668;28;20112;-71
2022/11/13 01:20:37;;;;;;;16.20;9.55;;;9.30;99.90;;;;;;5029831;28;20099;-71
2022/11/13 01:23:03;;;;;;;18.63;10.57;;;9.30;99.90;;;;;;5028663;28;20064;-72
2022/11/13 01:25:29;;;;;;;20.40;10.80;;;9.30;99.90;;;;;;5030440;28;20406;-72
2022/11/13 01:27:55;;;;;;;18.02;9.55;;;9.30;99.90;;;;;;5042967;28;20454;-71
2022/11/13 01:30:21;;;;;;;16.27;9.00;;;9.20;99.90;;;;;;5029289;28;20037;-71
2022/11/13 01:32:46;;;;;;;14.80;9.57;;;9.20;99.90;;;;;;5030200;28;20029;-71
2022/11/13 01:35:14;;;;;;;13.38;9.30;;;9.20;99.90;;;;;;5028419;28;20526;-72
2022/11/13 01:37:40;;;;;;;15.18;9.18;;;9.20;99.90;;;;;;5031300;28;20107;-72
2022/11/13 01:40:08;;;;;;;16.35;8.32;;;9.20;99.90;;;;;;5030572;28;20044;-73
2022/11/13 01:42:34;;;;;;;14.98;8.55;;;9.20;99.90;;;;;;5027384;28;20819;-72
2022/11/13 01:45:02;;;;;;;14.85;8.80;;;9.20;99.90;;;;;;5028617;28;20037;-71
2022/11/13 01:47:30;;;;;;;14.40;8.32;;;9.30;99.90;;;;;;5027951;28;21322;-72
2022/11/13 01:49:59;;;;;;;11.20;7.75;;;9.30;99.90;;;;;;5029228;28;20331;-72
2022/11/13 01:52:30;;;;;;;14.05;8.77;;;9.30;99.90;;;;;;5029747;28;20035;-71
2022/11/13 01:55:12;;;;;;;10.63;7.70;;;9.40;99.90;;;;;;5029961;28;20034;-71
2022/11/13 01:57:39;;;;;;;13.27;8.25;;;9.50;99.90;;;;;;5029835;28;20030;-73
2022/11/13 02:00:09;;;;;;;14.00;8.18;;;9.50;99.90;;;;;;5029353;28;20088;-71
2022/11/13 02:02:38;;;;;;;15.55;7.75;;;9.60;99.90;;;;;;5028777;28;20566;-71
2022/11/13 02:05:08;;;;;;;14.13;8.05;;;9.60;99.90;;;;;;5029553;28;20708;-71
2022/11/13 02:07:33;;;;;;;10.30;7.72;;;9.70;99.90;;;;;;5028760;28;20502;-71
2022/11/13 02:10:02;;;;;;;11.95;7.47;;;9.80;99.90;;;;;;5026728;28;20108;-70
2022/11/13 02:12:31;;;;;;;12.80;7.25;;;9.80;99.90;;;;;;5029466;28;20037;-71
2022/11/13 02:14:58;;;;;;;14.18;7.25;;;9.80;99.90;;;;;;5029908;28;20025;-71
2022/11/13 02:17:32;;;;;;;13.32;8.48;;;9.80;99.90;;;;;;5029660;28;20087;-71
2022/11/13 02:20:03;;;;;;;12.18;7.82;;;9.80;99.90;;;;;;5028985;28;20014;-71
2022/11/13 02:22:35;;;;;;;9.95;7.28;;;9.80;99.90;;;;;;5029927;28;20030;-72
2022/11/13 02:25:02;;;;;;;12.95;7.57;;;9.80;99.90;;;;;;5028835;28;20148;-71
2022/11/13 02:27:46;;;;;;;12.25;7.30;;;9.80;99.90;;;;;;5029505;28;20051;-72
2022/11/13 02:30:14;;;;;;;11.68;8.00;;;9.80;99.90;;;;;;5028760;28;20029;-72
2022/11/13 02:32:45;;;;;;;11.77;8.02;;;9.70;99.90;;;;;;5025617;28;20033;-71
2022/11/13 02:35:36;;;;;;;11.13;7.97;;;9.70;99.90;;;;;;5025405;28;20034;-72
2022/11/13 02:38:06;;;;;;;9.75;7.40;;;9.70;99.90;;;;;;5028795;28;20060;-71
2022/11/13 02:40:32;;;;;;;11.45;7.72;;;9.70;99.90;;;;;;5026692;28;20025;-71
2022/11/13 02:42:58;;;;;;;13.48;6.97;;;9.60;99.90;;;;;;5030397;28;20037;-71
2022/11/13 02:45:26;;;;;;;15.00;8.07;;;9.60;99.90;;;;;;5029224;28;20056;-72
2022/11/13 02:47:54;;;;;;;11.85;7.75;;;9.60;99.90;;;;;;5029738;28;20043;-72
2022/11/13 02:50:20;;;;;;;18.23;8.10;;;9.60;99.90;;;;;;5028241;28;20033;-70
2022/11/13 02:52:47;;;;;;;11.77;6.93;;;9.60;99.90;;;;;;5027040;28;20521;-71
2022/11/13 02:55:14;;;;;;;12.68;7.40;;;9.60;99.90;;;;;;5028641;28;20346;-71
2022/11/13 02:57:39;;;;;;;12.27;7.13;;;9.70;99.90;;;;;;5027454;28;20018;-72
2022/11/13 03:00:06;;;;;;;14.68;7.25;;;9.70;99.90;;;;;;5023607;28;20559;-71
2022/11/13 03:02:33;;;;;;;11.00;7.38;;;9.70;99.90;;;;;;5037002;28;20459;-71
2022/11/13 03:04:59;;;;;;;10.00;7.35;;;9.70;99.90;;;;;;5027734;28;20036;-71
2022/11/13 03:07:25;;;;;;;10.27;6.95;;;9.70;99.90;;;;;;5024995;28;20025;-72
2022/11/13 03:09:50;;;;;;;15.13;7.43;;;9.70;99.90;;;;;;5026520;28;20029;-71
2022/11/13 03:12:18;;;;;;;14.63;8.07;;;9.70;99.90;;;;;;5030784;28;20029;-72
2022/11/13 03:14:46;;;;;;;14.65;7.85;;;9.60;99.90;;;;;;5028104;28;20052;-71
2022/11/13 03:17:12;;;;;;;12.30;7.30;;;9.60;99.90;;;;;;5028414;28;20055;-71
2022/11/13 03:19:38;;;;;;;12.18;8.00;;;9.60;99.90;;;;;;5024958;28;20052;-73
2022/11/13 03:22:03;;;;;;;9.88;7.03;;;9.60;99.90;;;;;;5026422;28;20030;-71
2022/11/13 03:24:29;;;;;;;15.48;7.90;;;9.50;99.90;;;;;;5026957;28;20013;-72
2022/11/13 03:26:57;;;;;;;14.13;7.53;;;9.50;99.90;;;;;;5026376;28;20033;-72
2022/11/13 03:29:25;;;;;;;16.05;8.02;;;9.40;99.90;;;;;;5028863;28;20501;-71
2022/11/13 03:31:51;;;;;;;12.23;7.60;;;9.30;99.90;;;;;;5029023;28;20035;-71
2022/11/13 03:34:19;;;;;;;10.80;7.60;;;9.30;99.90;;;;;;5026256;28;20029;-72
2022/11/13 03:36:47;;;;;;;11.02;7.68;;;9.20;99.90;;;;;;5025405;28;20061;-72
2022/11/13 03:39:15;;;;;;;13.73;8.27;;;9.20;99.90;;;;;;5025544;28;20039;-71
2022/11/13 03:41:43;;;;;;;14.50;7.15;;;9.20;99.90;;;;;;5026816;28;20560;-71
2022/11/13 03:44:08;;;;;;;11.95;7.53;;;9.10;99.90;;;;;;5024274;28;20104;-71
2022/11/13 03:46:34;;;;;;;11.30;7.78;;;9.00;99.90;;;;;;5025922;28;20104;-72
2022/11/13 03:48:59;;;;;;;11.48;7.45;;;9.00;99.90;;;;;;5024578;28;20512;-71
2022/11/13 03:51:25;;;;;;;13.25;7.68;;;8.90;99.90;;;;;;5025734;28;20474;-71
2022/11/13 03:53:53;;;;;;;11.18;7.32;;;8.80;99.90;;;;;;5025506;28;20459;-72
2022/11/13 03:56:21;;;;;;;11.02;8.18;;;8.80;99.90;;;;;;5028247;28;20025;-72
2022/11/13 03:58:47;;;;;;;14.00;8.25;;;8.70;99.90;;;;;;5025955;28;20069;-72
2022/11/13 04:01:15;;;;;;;12.23;7.18;;;8.70;99.90;;;;;;5028964;28;20045;-72
2022/11/13 04:03:43;;;;;;;11.57;7.50;;;8.60;99.90;;;;;;5028660;28;20025;-72
2022/11/13 04:06:09;;;;;;;11.98;7.18;;;8.50;99.90;;;;;;5025759;28;20026;-71
2022/11/13 04:08:35;;;;;;;10.82;8.02;;;8.40;99.90;;;;;;5024745;28;20111;-71
2022/11/13 04:11:10;;;;;;;11.48;7.03;;;8.40;99.90;;;;;;5026863;28;20535;-72
2022/11/13 04:13:36;;;;;;;14.60;7.75;;;8.40;99.90;;;;;;5027043;28;20045;-71
2022/11/13 04:16:05;;;;;;;13.52;7.63;;;8.40;99.90;;;;;;5026630;28;20113;-71
2022/11/13 04:18:31;;;;;;;13.23;8.45;;;8.50;99.90;;;;;;5025647;28;20096;-71
2022/11/13 04:21:02;;;;;;;15.60;8.23;;;8.50;99.90;;;;;;5028079;28;20026;-71
2022/11/13 04:23:28;;;;;;;12.88;7.15;;;8.50;99.90;;;;;;5030576;28;20070;-71
2022/11/13 04:25:56;;;;;;;9.88;7.22;;;8.40;99.90;;;;;;5030997;28;20121;-71
2022/11/13 04:28:23;;;;;;;13.50;7.30;;;8.40;99.90;;;;;;5030768;28;20099;-71
2022/11/13 04:30:48;;;;;;;11.25;7.25;;;8.40;99.90;;;;;;5030212;28;20033;-71
2022/11/13 04:33:14;;;;;;;10.77;7.45;;;8.40;99.90;;;;;;5029511;28;20095;-71
2022/11/13 04:35:44;;;;;;;12.93;7.45;;;8.40;99.90;;;;;;5030895;28;20021;-72
2022/11/13 04:38:10;;;;;;;12.60;6.53;;;8.30;99.90;;;;;;5029041;28;20033;-71
2022/11/13 04:40:35;;;;;;;8.75;6.85;;;8.30;99.90;;;;;;5031436;28;20128;-72
2022/11/13 04:43:01;;;;;;;11.93;8.00;;;8.20;99.90;;;;;;5030215;28;20025;-71
2022/11/13 04:45:29;;;;;;;14.35;7.10;;;8.20;99.90;;;;;;5030879;28;20030;-72
2022/11/13 04:47:55;;;;;;;10.50;7.13;;;8.10;99.90;;;;;;5030887;28;20190;-71
2022/11/13 04:50:22;;;;;;;15.25;8.38;;;8.10;99.90;;;;;;5031193;28;20124;-72
2022/11/13 04:52:48;;;;;;;9.65;6.90;;;8.10;99.90;;;;;;5028537;28;20033;-72
2022/11/13 04:55:14;;;;;;;11.18;7.55;;;8.00;99.90;;;;;;5028443;28;20025;-71
2022/11/13 04:57:40;;;;;;;18.20;8.55;;;7.90;99.90;;;;;;5030289;28;20021;-72
2022/11/13 05:00:07;;;;;;;13.57;8.25;;;7.90;99.90;;;;;;5031064;28;20095;-71
2022/11/13 05:02:33;;;;;;;13.10;7.70;;;7.80;99.90;;;;;;5031007;28;20017;-71
2022/11/13 05:05:01;;;;;;;15.50;7.63;;;7.80;99.90;;;;;;5029336;28;20461;-71
2022/11/13 05:07:27;;;;;;;15.07;8.75;;;7.80;99.90;;;;;;5031449;28;20095;-71
2022/11/13 05:09:53;;;;;;;12.70;8.43;;;7.80;99.90;;;;;;5028909;28;20033;-69
2022/11/13 05:12:19;;;;;;;12.68;8.45;;;7.80;99.90;;;;;;5027577;28;20030;-70
2022/11/13 05:14:45;;;;;;;11.32;8.05;;;7.80;99.90;;;;;;5030089;28;20470;-71
2022/11/13 05:17:14;;;;;;;17.58;7.75;;;7.80;99.90;;;;;;5030654;28;20033;-72
2022/11/13 05:19:39;;;;;;;13.05;8.13;;;7.80;99.90;;;;;;5030419;28;20025;-72
2022/11/13 05:22:07;;;;;;;12.55;8.30;;;7.80;99.90;;;;;;5026680;28;20027;-72
2022/11/13 05:24:33;;;;;;;11.98;8.43;;;7.80;99.90;;;;;;5027549;28;20029;-71
2022/11/13 05:27:03;;;;;;;13.32;9.27;;;7.80;99.90;;;;;;5029541;28;20024;-70
2022/11/13 05:29:31;;;;;;;10.10;7.95;;;7.90;99.90;;;;;;5027701;28;20108;-71
2022/11/13 05:31:57;;;;;;;13.90;8.23;;;7.80;99.90;;;;;;5030077;28;20328;-72
2022/11/13 05:34:23;;;;;;;14.80;8.55;;;7.80;99.90;;;;;;5027819;28;20060;-71
2022/11/13 05:36:48;;;;;;;13.02;8.23;;;7.80;99.90;;;;;;5030055;28;20044;-72
2022/11/13 05:39:14;;;;;;;15.15;8.43;;;7.70;99.90;;;;;;5028353;28;20034;-71
2022/11/13 05:41:40;;;;;;;12.32;8.35;;;7.60;99.90;;;;;;5028035;28;20031;-72
2022/11/13 05:44:06;;;;;;;13.65;7.85;;;7.50;99.90;;;;;;5030081;28;20030;-72
2022/11/13 05:46:31;;;;;;;18.35;8.50;;;7.40;99.90;;;;;;5026241;28;20022;-71
2022/11/13 05:49:00;;;;;;;10.73;7.97;;;7.40;99.90;;;;;;5028140;28;20060;-72
2022/11/13 05:51:28;;;;;;;10.60;7.82;;;7.40;99.90;;;;;;5029378;28;20414;-72
2022/11/13 05:53:57;;;;;;;11.60;8.15;;;7.30;99.90;;;;;;5028639;28;20040;-71
2022/11/13 05:56:34;;;;;;;11.32;7.80;;;7.20;99.90;;;;;;5030195;28;20101;-74
2022/11/13 05:59:01;;;;;;;14.25;7.90;;;7.20;99.90;;;;;;5030420;28;20048;-72
2022/11/13 06:01:37;;;;;;;12.30;7.47;;;7.10;99.90;;;;;;5030149;28;20021;-72
2022/11/13 06:04:04;;;;;;;14.93;8.23;;;7.10;99.90;;;;;;5028127;28;20029;-72
2022/11/13 06:06:31;;;;;;;10.32;7.75;;;7.10;99.90;;;;;;5027745;28;20021;-72
2022/11/13 06:09:03;;;;;;;13.52;8.75;;;7.10;99.90;;;;;;5028334;28;20100;-71
2022/11/13 06:11:29;;;;;;;11.80;7.47;;;7.20;99.90;;;;;;5028261;28;20037;-72
2022/11/13 06:13:57;;;;;;;13.35;8.98;;;7.20;99.90;;;;;;5029846;28;20054;-72
2022/11/13 06:16:37;;;;;;;14.25;9.10;;;7.10;99.90;;;;;;5028923;28;20456;-72
2022/11/13 06:19:08;;;;;;;16.13;9.10;;;7.10;99.90;;;;;;5029355;28;20196;-71
2022/11/13 06:21:38;;;;;;;15.25;9.20;;;7.10;99.90;;;;;;5028982;28;20021;-72
2022/11/13 06:24:07;;;;;;;15.82;9.32;;;7.20;99.90;;;;;;5028543;28;20030;-72
2022/11/13 06:26:34;;;;;;;15.98;9.50;;;7.20;99.90;;;;;;5026895;28;20517;-72
2022/11/13 06:29:01;;;;;;;16.40;9.63;;;7.30;99.90;;;;;;5028725;28;20118;-72
2022/11/13 06:31:30;;;;;;;13.23;9.10;;;7.30;99.90;;;;;;5026654;28;20040;-71
2022/11/13 06:33:58;;;;;;;18.27;9.77;;;7.40;99.90;;;;;;5027226;28;20047;-72
2022/11/13 06:36:29;;;;;;;17.25;9.70;;;7.30;99.90;;;;;;5028323;28;20036;-71
2022/11/13 06:38:55;;;;;;;15.00;8.82;;;7.40;99.90;;;;;;5027873;28;20033;-72
2022/11/13 06:41:25;;;;;;;16.88;9.43;;;7.50;99.90;;;;;;5026522;28;20032;-71
2022/11/13 06:43:51;;;;;;;14.38;8.80;;;7.50;99.90;;;;;;5025020;28;20068;-71
2022/11/13 06:46:19;;;;;;;12.52;8.77;;;7.50;99.90;;;;;;5029660;28;20457;-75
2022/11/13 06:48:45;;;;;;;15.73;9.20;;;7.60;99.90;;;;;;5029182;28;20025;-73
2022/11/13 06:51:15;;;;;;;16.92;9.82;;;7.60;99.90;;;;;;5028268;28;20074;-70
2022/11/13 06:53:44;;;;;;;15.25;8.95;;;7.60;99.90;;;;;;5028534;28;20025;-71
2022/11/13 06:56:10;;;;;;;15.85;9.90;;;7.70;99.90;;;;;;5028690;28;20029;-71
2022/11/13 06:58:37;;;;;;;13.80;9.25;;;7.70;99.90;;;;;;5024650;28;20104;-70
2022/11/13 07:01:31;;;;;;;19.13;9.10;;;7.70;99.90;;;;;;5026689;28;20040;-74
2022/11/13 07:03:57;;;;;;;15.77;8.48;;;7.70;99.90;;;;;;5028616;28;20048;-72
2022/11/13 07:06:23;;;;;;;15.90;8.93;;;7.70;99.90;;;;;;5028380;28;20025;-74
2022/11/13 07:08:52;;;;;;;13.60;9.30;;;7.60;99.90;;;;;;5027348;28;20067;-73
2022/11/13 07:11:22;;;;;;;19.85;9.60;;;7.70;99.90;;;;;;5027892;28;20032;-73
2022/11/13 07:13:48;;;;;;;17.08;9.15;;;7.60;99.90;;;;;;5025986;28;20025;-74
2022/11/13 07:16:15;;;;;;;16.83;9.25;;;7.80;99.90;;;;;;5028032;28;20486;-73
2022/11/13 07:18:41;;;;;;;14.30;8.70;;;8.00;99.90;;;;;;5027909;28;20079;-73
2022/11/13 07:21:11;;;;;;;15.07;9.68;;;8.00;99.90;;;;;;5026243;28;20022;-73
2022/11/13 07:23:41;;;;;;;16.30;9.48;;;8.00;99.90;;;;;;5026493;28;20034;-72
2022/11/13 07:26:10;;;;;;;19.85;9.73;;;8.00;99.90;;;;;;5024843;28;20029;-73
2022/11/13 07:28:36;;;;;;;16.00;9.35;;;7.90;99.90;;;;;;5026332;28;20041;-73
2022/11/13 07:31:02;;;;;;;13.10;8.93;;;7.90;99.90;;;;;;5027261;28;20040;-74
2022/11/13 07:33:31;;;;;;;12.35;8.50;;;8.00;99.90;;;;;;5024376;28;20036;-70
2022/11/13 07:35:57;;;;;;;16.88;9.60;;;8.10;99.90;;;;;;5026929;28;20026;-74
2022/11/13 07:38:23;;;;;;;15.43;9.65;;;8.00;99.90;;;;;;5039394;28;20071;-74
2022/11/13 07:40:49;;;;;;;24.75;12.15;;;8.00;99.90;;;;;;5026908;28;20026;-72
2022/11/13 07:43:18;;;;;;;20.00;10.65;;;8.00;99.90;;;;;;5025603;28;20044;-72
2022/11/13 07:45:43;;;;;;;22.80;9.15;;;7.90;99.90;;;;;;5027042;28;20437;-72
2022/11/13 07:48:10;;;;;;;14.63;8.80;;;7.90;99.90;;;;;;5026200;28;20099;-72
2022/11/13 07:50:39;;;;;;;14.57;9.10;;;8.00;99.90;;;;;;5024661;28;20165;-72
2022/11/13 07:53:07;;;;;;;17.88;9.35;;;8.10;99.90;;;;;;5026935;28;20120;-72
2022/11/13 07:55:34;;;;;;;16.85;9.45;;;8.10;99.90;;;;;;5030345;28;20029;-71
2022/11/13 07:58:02;;;;;;;15.77;9.35;;;8.20;99.90;;;;;;5029005;28;20078;-72
2022/11/13 08:00:29;;;;;;;12.48;8.52;;;8.30;99.90;;;;;;5029394;28;20570;-72
2022/11/13 08:02:57;;;;;;;13.85;8.85;;;8.40;99.90;;;;;;5032608;28;20104;-72
2022/11/13 08:05:23;;;;;;;11.75;8.30;;;8.50;99.90;;;;;;5029136;28;20134;-72
2022/11/13 08:07:54;;;;;;;12.13;8.95;;;8.60;99.90;;;;;;5032727;28;20033;-72
2022/11/13 08:10:22;;;;;;;12.48;8.60;;;8.70;99.90;;;;;;5029866;28;20069;-71
2022/11/13 08:12:57;;;;;;;10.55;7.93;;;8.80;99.90;;;;;;5032010;28;20033;-72
2022/11/13 08:15:23;;;;;;;13.38;8.85;;;8.80;99.90;;;;;;5029291;28;20068;-71
2022/11/13 08:18:02;;;;;;;13.20;8.73;;;8.90;99.90;;;;;;5029215;28;20479;-73
2022/11/13 08:20:29;;;;;;;12.40;7.85;;;9.10;99.90;;;;;;5030731;28;20025;-72
2022/11/13 08:23:00;;;;;;;13.93;8.35;;;9.20;99.90;;;;;;5029855;28;20025;-72
2022/11/13 08:25:26;;;;;;;12.55;8.60;;;9.30;99.90;;;;;;5030804;28;20026;-70
2022/11/13 08:27:56;;;;;;;14.35;9.35;;;9.40;99.90;;;;;;5030305;28;20101;-72
2022/11/13 08:30:25;;;;;;;12.90;8.70;;;9.50;99.90;;;;;;5030402;28;20040;-71
2022/11/13 08:32:51;;;;;;;15.52;8.60;;;9.60;99.90;;;;;;5028276;28;20051;-70
2022/11/13 08:35:17;;;;;;;13.60;8.50;;;9.70;99.90;;;;;;5031648;28;20036;-72
2022/11/13 08:37:43;;;;;;;16.45;9.13;;;9.80;99.90;;;;;;5029321;28;20021;-72
2022/11/13 08:40:09;;;;;;;13.60;8.93;;;9.90;99.90;;;;;;5030905;28;20033;-72
2022/11/13 08:42:35;;;;;;;14.88;8.80;;;9.90;99.90;;;;;;5032392;28;20068;-73
2022/11/13 08:45:03;;;;;;;266.83;91.00;;;9.90;99.90;;;;;;5029584;28;20050;-70
2022/11/13 08:47:29;;;;;;;19.08;10.98;;;10.10;99.90;;;;;;5028367;28;20088;-70
2022/11/13 08:49:55;;;;;;;15.20;9.57;;;10.20;99.90;;;;;;5030930;28;20600;-70
2022/11/13 08:52:21;;;;;;;13.82;9.15;;;10.30;99.90;;;;;;5028940;28;20048;-69
2022/11/13 08:54:46;;;;;;;14.18;9.15;;;10.40;99.90;;;;;;5029589;28;20049;-71
2022/11/13 08:57:12;;;;;;;14.20;7.93;;;10.40;99.90;;;;;;5029890;28;20017;-70
2022/11/13 08:59:41;;;;;;;12.48;8.43;;;10.50;99.90;;;;;;5029682;28;20502;-70
2022/11/13 09:02:11;;;;;;;14.48;8.88;;;10.60;99.90;;;;;;5043141;28;20056;-69
2022/11/13 09:04:37;;;;;;;13.07;8.45;;;10.80;99.90;;;;;;5027893;28;20021;-71
2022/11/13 09:07:02;;;;;;;14.05;8.57;;;10.90;99.90;;;;;;5027054;28;20032;-72
2022/11/13 09:09:28;;;;;;;13.50;8.75;;;11.10;99.90;;;;;;5026011;28;20056;-71
2022/11/13 09:11:54;;;;;;;14.45;8.07;;;11.10;99.90;;;;;;5027604;28;20037;-71
2022/11/13 09:14:19;;;;;;;11.35;8.88;;;11.20;99.90;;;;;;5025483;28;20033;-71
2022/11/13 09:16:48;;;;;;;15.27;9.13;;;11.30;99.90;;;;;;5024433;28;20030;-71
2022/11/13 09:19:16;;;;;;;12.30;8.00;;;11.40;99.90;;;;;;5012591;28;20475;-72
2022/11/13 09:21:42;;;;;;;13.95;8.88;;;11.50;99.90;;;;;;5029536;28;20061;-71
2022/11/13 09:24:07;;;;;;;14.68;8.10;;;11.60;99.90;;;;;;5031142;28;20049;-72
2022/11/13 09:26:35;;;;;;;12.73;8.43;;;11.60;99.90;;;;;;5029950;28;20087;-72
2022/11/13 09:29:04;;;;;;;12.05;8.95;;;11.70;99.90;;;;;;5029090;28;20053;-72
2022/11/13 09:31:29;;;;;;;12.82;8.52;;;11.80;99.90;;;;;;5030418;28;20018;-72
2022/11/13 09:34:00;;;;;;;10.38;7.53;;;11.90;99.90;;;;;;5029843;28;20018;-72
2022/11/13 09:36:27;;;;;;;10.25;7.40;;;12.00;99.90;;;;;;5042692;28;20037;-71
2022/11/13 09:38:54;;;;;;;11.20;8.02;;;12.10;99.90;;;;;;5028959;28;20362;-71
2022/11/13 09:41:28;;;;;;;9.63;7.97;;;12.20;99.90;;;;;;5029671;28;20017;-72
2022/11/13 09:43:56;;;;;;;9.93;7.70;;;12.30;99.90;;;;;;5028771;28;20129;-72
2022/11/13 09:46:30;;;;;;;12.32;7.35;;;12.50;99.90;;;;;;5029065;28;20037;-70
2022/11/13 09:49:02;;;;;;;9.43;6.90;;;12.70;99.90;;;;;;5030875;28;20029;-72
2022/11/13 09:51:31;;;;;;;11.55;7.38;;;12.80;99.90;;;;;;5030276;28;20037;-72
2022/11/13 09:53:59;;;;;;;13.75;7.40;;;13.00;99.90;;;;;;5028260;28;20026;-72
2022/11/13 09:57:19;;;;;;;10.20;7.13;;;13.10;99.90;;;;;;5029061;28;20040;-72
2022/11/13 09:59:53;;;;;;;7.93;6.20;;;13.30;99.90;;;;;;5016724;28;20090;-72
2022/11/13 10:02:39;;;;;;;9.07;7.00;;;13.60;99.90;;;;;;5028315;28;20025;-72
2022/11/13 10:05:30;;;;;;;8.95;6.53;;;13.90;99.90;;;;;;5026716;28;20040;-72
2022/11/13 10:08:17;;;;;;;43.92;19.45;;;14.20;99.10;;;;;;5026626;28;20050;-69
2022/11/13 10:10:51;;;;;;;576.03;225.05;;;14.40;98.20;;;;;;5043462;28;20033;-71
2022/11/13 10:13:26;;;;;;;18.30;10.13;;;14.70;97.60;;;;;;5041778;28;20057;-73
2022/11/13 10:15:59;;;;;;;7.55;5.78;;;15.00;97.20;;;;;;5027699;28;20036;-73
2022/11/13 10:18:32;;;;;;;7.28;5.70;;;15.40;95.40;;;;;;5027479;28;20045;-72
2022/11/13 10:21:18;;;;;;;10.70;5.70;;;15.70;94.40;;;;;;5029033;28;20486;-72
2022/11/13 10:23:55;;;;;;;9.35;5.72;;;16.00;93.90;;;;;;5028990;28;20075;-71
2022/11/13 10:26:26;;;;;;;9.05;6.65;;;16.10;92.60;;;;;;5026372;28;20055;-71
2022/11/13 10:29:12;;;;;;;10.00;6.28;;;16.50;93.10;;;;;;5027027;28;20029;-71
2022/11/13 10:31:42;;;;;;;7.07;5.90;;;17.00;92.80;;;;;;5027887;28;20079;-70
2022/11/13 10:34:11;;;;;;;8.05;5.95;;;17.70;88.80;;;;;;5028956;28;20025;-71
2022/11/13 10:37:11;;;;;;;8.68;6.38;;;18.30;85.30;;;;;;5028780;28;20041;-71
2022/11/13 10:39:46;;;;;;;8.88;5.43;;;18.80;85.70;;;;;;5028935;28;20056;-71
2022/11/13 10:42:30;;;;;;;8.63;5.45;;;19.20;79.60;;;;;;5028229;28;20033;-71
2022/11/13 10:44:59;;;;;;;9.40;5.82;;;19.60;81.70;;;;;;5030201;28;20026;-73
2022/11/13 10:47:27;;;;;;;7.40;6.00;;;20.10;78.10;;;;;;5027925;28;20438;-71
2022/11/13 10:50:07;;;;;;;6.72;5.65;;;20.40;82.20;;;;;;5027294;28;20025;-71
2022/11/13 10:52:33;;;;;;;6.55;5.88;;;20.60;75.10;;;;;;5025909;28;20454;-71
2022/11/13 10:55:24;;;;;;;7.97;6.10;;;20.80;73.40;;;;;;5028538;28;20025;-72
2022/11/13 10:58:00;;;;;;;7.95;5.28;;;21.10;74.10;;;;;;5031013;28;20064;-71
2022/11/13 11:00:32;;;;;;;8.70;5.95;;;21.40;68.50;;;;;;5024884;28;20076;-71
2022/11/13 11:02:58;;;;;;;7.57;5.78;;;21.70;68.50;;;;;;5030688;28;20036;-70
2022/11/13 11:05:27;;;;;;;90.65;36.33;;;21.70;66.50;;;;;;5028742;28;20463;-75
2022/11/13 11:07:59;;;;;;;5.60;5.10;;;21.80;67.10;;;;;;5028110;28;20087;-73
2022/11/13 11:12:14;;;;;;;4.90;4.43;;;21.80;65.50;;;;;;5026873;28;20025;-73
2022/11/13 11:13:25;;;;;;;5.72;4.88;;;21.80;63.50;;;;;;5027955;28;20040;-72
2022/11/13 11:15:55;;;;;;;4.57;4.20;;;21.90;62.40;;;;;;5024776;28;20032;-73
2022/11/13 11:18:24;;;;;;;5.18;3.85;;;21.80;60.40;;;;;;5028429;28;20052;-73
2022/11/13 11:20:57;;;;;;;4.10;3.80;;;21.80;62.30;;;;;;5028957;28;20105;-72
2022/11/13 11:23:41;;;;;;;4.97;4.03;;;22.00;62.60;;;;;;5030895;28;20601;-74
2022/11/13 11:26:30;;;;;;;151.45;71.60;;;22.10;59.50;;;;;;5028169;28;20029;-77
2022/11/13 11:29:29;;;;;;;5.35;3.60;;;22.20;59.80;;;;;;5029523;28;20474;-75
2022/11/13 11:32:06;;;;;;;4.47;4.07;;;22.00;59.30;;;;;;5028292;28;20076;-75
2022/11/13 11:34:42;;;;;;;4.90;4.40;;;21.80;62.90;;;;;;5025572;28;20037;-75
2022/11/13 11:37:18;;;;;;;4.57;4.15;;;21.90;62.70;;;;;;5026987;28;20037;-73
2022/11/13 11:40:13;;;;;;;4.20;3.83;;;22.00;65.40;;;;;;5026897;28;20087;-73
2022/11/13 11:42:45;;;;;;;;;;;22.10;62.20;;;;;;5043155;28;20109;-73
2022/11/13 11:45:28;;;;;;;3.80;3.50;;;22.20;64.70;;;;;;5026559;28;19915;-72
2022/11/13 11:47:58;;;;;;;55.03;26.50;;;22.30;61.20;;;;;;5031197;28;20063;-76
2022/11/13 11:50:48;;;;;;;3.38;2.90;;;22.50;59.90;;;;;;5034332;28;20025;-77
2022/11/13 11:53:47;;;;;;;5.43;2.55;;;22.50;59.50;;;;;;5030119;28;20095;-75
2022/11/13 11:56:16;;;;;;;4.13;2.90;;;22.80;57.60;;;;;;5036044;28;20029;-75
2022/11/13 11:58:57;;;;;;;2.92;2.63;;;22.90;55.80;;;;;;5029481;28;20021;-73
2022/11/13 12:01:51;;;;;;;3.53;3.08;;;22.80;55.50;;;;;;5030458;28;20080;-72
2022/11/13 12:04:32;;;;;;;12.50;5.78;;;23.00;55.70;;;;;;5025416;28;20048;-74
2022/11/13 12:07:22;;;;;;;3.35;3.00;;;23.20;56.80;;;;;;5033256;28;20501;-72
2022/11/13 12:10:08;;;;;;;4.10;3.05;;;23.50;55.30;;;;;;5028377;28;20041;-77
2022/11/13 12:12:55;;;;;;;3.03;2.83;;;23.80;55.40;;;;;;5027788;28;20494;-75
2022/11/13 12:15:54;;;;;;;3.13;2.85;;;23.90;55.70;;;;;;5029202;28;20515;-75
2022/11/13 12:18:20;;;;;;;4.38;2.88;;;24.00;53.50;;;;;;5031796;28;20064;-73
2022/11/13 12:21:20;;;;;;;3.83;3.00;;;24.10;54.20;;;;;;5024888;28;20065;-74
2022/11/13 12:24:10;;;;;;;3.45;3.25;;;23.80;54.40;;;;;;5029756;28;20216;-74
2022/11/13 12:27:00;;;;;;;3.55;3.22;;;23.60;54.20;;;;;;5026397;28;20458;-75
2022/11/13 12:29:52;;;;;;;3.53;3.22;;;23.30;54.40;;;;;;5028052;28;20037;-75
2022/11/13 12:32:41;;;;;;;5.78;3.25;;;23.60;53.90;;;;;;5015259;28;20045;-74
2022/11/13 12:35:18;;;;;;;3.58;3.28;;;23.80;54.40;;;;;;5027375;28;20056;-75
2022/11/13 12:37:50;;;;;;;5.15;3.33;;;23.80;54.00;;;;;;5033320;28;20048;-72
2022/11/13 12:40:38;;;;;;;181.10;74.18;;;23.90;52.90;;;;;;5027350;28;20133;-71
2022/11/13 12:43:31;;;;;;;3.70;3.40;;;24.00;52.60;;;;;;5034821;28;20068;-76
2022/11/13 12:46:07;;;;;;;3.85;3.55;;;24.10;52.20;;;;;;5029408;28;20053;-75
2022/11/13 12:48:41;;;;;;;4.00;3.60;;;24.00;51.90;;;;;;5037499;28;20045;-76
2022/11/13 12:51:10;;;;;;;4.13;3.72;;;24.10;52.40;;;;;;5027176;28;20478;-75
2022/11/13 12:53:49;;;;;;;4.57;4.20;;;24.20;52.30;;;;;;5035456;28;20030;-75
2022/11/13 12:56:23;;;;;;;4.32;3.65;;;24.30;52.40;;;;;;5033899;28;20025;-74
2022/11/13 12:59:28;;;;;;;3.90;3.47;;;24.70;52.40;;;;;;5035607;28;20447;-74
2022/11/13 13:02:07;;;;;;;3.85;3.55;;;25.20;51.30;;;;;;5031155;28;20022;-75